createdAt,value
2023-04-20T00:00:27.960Z,4.85
2023-04-20T00:02:56.446Z,4.72
2023-04-20T00:05:23.379Z,4.55
2023-04-20T00:07:50.530Z,4.50
2023-04-20T00:10:18.570Z,4.60
2023-04-20T00:12:45.781Z,4.57
2023-04-20T00:15:14.100Z,4.72
2023-04-20T00:17:41.085Z,4.63
2023-04-20T00:20:10.072Z,4.55
2023-04-20T00:22:37.144Z,4.80
2023-04-20T00:25:04.374Z,4.55
2023-04-20T00:27:31.370Z,4.75
2023-04-20T00:29:58.285Z,4.75
2023-04-20T00:32:27.426Z,4.18
2023-04-20T00:34:54.429Z,4.50
2023-04-20T00:37:21.383Z,5.10
2023-04-20T00:39:48.254Z,4.65
2023-04-20T00:42:17.307Z,4.43
2023-04-20T00:44:44.669Z,4.30
2023-04-20T00:47:12.865Z,5.22
2023-04-20T00:49:40.352Z,4.43
2023-04-20T00:52:07.855Z,4.65
2023-04-20T00:54:44.913Z,4.00
2023-04-20T00:57:14.140Z,4.53
2023-04-20T00:59:41.567Z,4.72
2023-04-20T01:02:08.599Z,5.38
2023-04-20T01:04:44.167Z,4.30
2023-04-20T01:07:13.444Z,4.03
2023-04-20T01:09:43.048Z,4.57
2023-04-20T01:12:12.177Z,4.47
2023-04-20T01:14:38.976Z,4.57
2023-04-20T01:17:06.135Z,4.38
2023-04-20T01:19:33.789Z,4.40
2023-04-20T01:22:02.482Z,4.57
2023-04-20T01:24:29.732Z,4.50
2023-04-20T01:26:59.153Z,4.25
2023-04-20T01:29:30.009Z,4.90
2023-04-20T01:31:57.333Z,4.75
2023-04-20T01:34:26.494Z,4.50
2023-04-20T01:36:54.386Z,4.47
2023-04-20T01:39:23.735Z,4.50
2023-04-20T01:41:56.285Z,4.28
2023-04-20T01:44:25.434Z,4.38
2023-04-20T01:46:54.833Z,4.55
2023-04-20T01:49:24.176Z,4.82
2023-04-20T01:51:56.033Z,4.00
2023-04-20T01:54:31.381Z,4.60
2023-04-20T01:57:02.841Z,4.25
2023-04-20T01:59:32.956Z,4.47
2023-04-20T02:02:03.461Z,4.35
2023-04-20T02:04:35.422Z,4.30
2023-04-20T02:07:02.785Z,4.10
2023-04-20T02:09:33.080Z,4.60
2023-04-20T02:12:02.681Z,4.55
2023-04-20T02:14:32.746Z,4.30
2023-04-20T02:17:09.820Z,4.05
2023-04-20T02:19:37.183Z,4.28
2023-04-20T02:22:06.724Z,4.57
2023-04-20T02:24:33.905Z,4.35
2023-04-20T02:27:03.326Z,5.13
2023-04-20T02:29:34.461Z,4.35
2023-04-20T02:32:08.471Z,4.47
2023-04-20T02:34:35.523Z,4.32
2023-04-20T02:37:03.474Z,4.68
2023-04-20T02:39:33.421Z,4.45
2023-04-20T02:42:00.489Z,4.53
2023-04-20T02:44:29.133Z,4.30
2023-04-20T02:47:02.624Z,4.18
2023-04-20T02:53:55.585Z,4.13
2023-04-20T02:56:27.191Z,4.13
2023-04-20T02:58:59.438Z,4.10
2023-04-20T03:06:07.680Z,4.38
2023-04-20T03:08:37.148Z,4.35
2023-04-20T03:11:49.436Z,4.53
2023-04-20T03:14:43.888Z,4.50
2023-04-20T03:17:15.535Z,4.40
2023-04-20T03:19:46.148Z,4.30
2023-04-20T03:22:13.091Z,4.10
2023-04-20T03:24:40.123Z,4.35
2023-04-20T03:27:20.299Z,4.55
2023-04-20T03:30:05.378Z,3.83
2023-04-20T03:32:38.412Z,4.07
2023-04-20T03:35:08.745Z,4.50
2023-04-20T03:37:37.956Z,4.05
2023-04-20T03:40:09.390Z,4.13
2023-04-20T03:43:02.052Z,4.03
2023-04-20T03:45:32.120Z,4.10
2023-04-20T03:47:59.065Z,4.15
2023-04-20T03:50:29.473Z,4.13
2023-04-20T03:53:04.725Z,3.67
2023-04-20T03:56:30.019Z,3.75
2023-04-20T03:59:03.248Z,4.15
2023-04-20T04:01:33.817Z,3.85
2023-04-20T04:07:53.229Z,3.33
2023-04-20T04:14:47.133Z,3.85
2023-04-20T04:17:22.256Z,3.78
2023-04-20T04:19:49.317Z,3.65
2023-04-20T04:22:18.364Z,4.05
2023-04-20T04:25:11.768Z,4.25
2023-04-20T04:27:43.318Z,3.95
2023-04-20T04:30:13.903Z,4.13
2023-04-20T04:32:46.690Z,4.07
2023-04-20T04:35:17.166Z,4.35
2023-04-20T04:37:45.184Z,4.28
2023-04-20T04:40:16.182Z,4.30
2023-04-20T04:42:47.604Z,4.50
2023-04-20T04:45:16.689Z,4.30
2023-04-20T04:47:48.165Z,37.80
2023-04-20T04:50:15.172Z,5.35
2023-04-20T04:52:45.307Z,5.55
2023-04-20T04:55:18.555Z,4.38
2023-04-20T04:57:47.523Z,4.45
2023-04-20T05:00:15.978Z,5.20
2023-04-20T05:02:42.986Z,4.30
2023-04-20T05:05:14.896Z,4.70
2023-04-20T05:08:43.765Z,4.88
2023-04-20T05:11:10.871Z,4.40
2023-04-20T05:13:41.583Z,3.63
2023-04-20T05:16:08.467Z,4.40
2023-04-20T05:18:37.986Z,4.60
2023-04-20T05:21:05.128Z,4.80
2023-04-20T05:23:32.571Z,5.38
2023-04-20T05:26:01.615Z,4.70
2023-04-20T05:28:29.472Z,4.72
2023-04-20T05:30:59.025Z,4.43
2023-04-20T05:33:27.957Z,4.60
2023-04-20T05:35:58.278Z,4.78
2023-04-20T05:38:25.605Z,4.28
2023-04-20T05:40:56.563Z,4.10
2023-04-20T05:43:24.079Z,4.20
2023-04-20T05:45:54.027Z,5.00
2023-04-20T05:48:20.941Z,4.50
2023-04-20T05:50:48.151Z,4.55
2023-04-20T05:53:15.406Z,4.55
2023-04-20T05:55:42.253Z,4.53
2023-04-20T05:58:09.121Z,5.50
2023-04-20T06:00:36.261Z,5.25
2023-04-20T06:03:04.152Z,5.32
2023-04-20T06:05:34.485Z,4.40
2023-04-20T06:08:02.185Z,5.53
2023-04-20T06:10:32.423Z,4.50
2023-04-20T06:12:59.530Z,4.32
2023-04-20T06:15:28.160Z,9.80
2023-04-20T06:17:55.177Z,4.68
2023-04-20T06:20:22.582Z,6.28
2023-04-20T06:22:51.445Z,5.03
2023-04-20T06:25:18.331Z,5.40
2023-04-20T06:27:48.175Z,4.38
2023-04-20T06:30:16.257Z,4.50
2023-04-20T06:32:43.281Z,4.97
2023-04-20T06:35:11.406Z,5.13
2023-04-20T06:37:40.489Z,5.00
2023-04-20T06:40:08.678Z,5.10
2023-04-20T06:42:37.339Z,5.25
2023-04-20T06:45:08.454Z,5.30
2023-04-20T06:47:36.909Z,5.38
2023-04-20T06:50:11.754Z,5.65
2023-04-20T06:52:39.863Z,5.88
2023-04-20T06:55:07.770Z,5.90
2023-04-20T06:57:39.792Z,6.13
2023-04-20T07:00:28.613Z,5.72
2023-04-20T07:02:56.195Z,6.05
2023-04-20T07:05:24.048Z,6.35
2023-04-20T07:07:51.738Z,6.28
2023-04-20T07:10:21.301Z,6.40
2023-04-20T07:12:48.567Z,6.13
2023-04-20T07:15:17.120Z,6.35
2023-04-20T07:17:44.323Z,6.78
2023-04-20T07:20:11.657Z,6.55
2023-04-20T07:22:42.162Z,6.53
2023-04-20T07:25:13.909Z,6.78
2023-04-20T07:27:44.848Z,6.80
2023-04-20T07:30:14.233Z,6.55
2023-04-20T07:32:41.983Z,7.22
2023-04-20T07:35:09.801Z,6.18
2023-04-20T07:37:36.909Z,7.43
2023-04-20T07:40:07.052Z,7.53
2023-04-20T07:42:37.029Z,7.70
2023-04-20T07:45:07.646Z,7.00
2023-04-20T07:47:38.273Z,7.15
2023-04-20T07:50:06.762Z,6.68
2023-04-20T07:52:34.036Z,6.78
2023-04-20T07:55:02.126Z,6.40
2023-04-20T07:57:32.395Z,6.97
2023-04-20T07:59:59.418Z,7.07
2023-04-20T08:02:28.515Z,7.50
2023-04-20T08:05:04.327Z,7.32
2023-04-20T08:07:34.000Z,7.40
2023-04-20T08:10:03.347Z,6.55
2023-04-20T08:12:30.202Z,6.38
2023-04-20T08:15:00.882Z,7.28
2023-04-20T08:17:29.957Z,7.30
2023-04-20T08:19:57.913Z,8.00
2023-04-20T08:22:30.564Z,7.10
2023-04-20T08:24:57.949Z,7.03
2023-04-20T08:27:26.327Z,7.32
2023-04-20T08:29:53.580Z,6.97
2023-04-20T08:32:26.713Z,6.82
2023-04-20T08:34:55.628Z,6.95
2023-04-20T08:37:23.361Z,14.80
2023-04-20T08:39:50.320Z,7.38
2023-04-20T08:42:21.099Z,7.80
2023-04-20T08:44:48.551Z,7.50
2023-04-20T08:47:16.043Z,7.47
2023-04-20T08:49:44.690Z,7.25
2023-04-20T08:52:12.198Z,6.65
2023-04-20T08:54:55.102Z,7.10
2023-04-20T08:57:25.184Z,6.90
2023-04-20T08:59:52.178Z,7.20
2023-04-20T09:02:19.283Z,8.18
2023-04-20T09:04:50.305Z,7.35
2023-04-20T09:07:20.462Z,7.28
2023-04-20T09:09:55.580Z,7.57
2023-04-20T09:12:23.447Z,6.90
2023-04-20T09:14:51.528Z,7.78
2023-04-20T09:17:34.740Z,7.78
2023-04-20T09:20:02.328Z,11.60
2023-04-20T09:22:34.094Z,7.43
2023-04-20T09:25:12.070Z,7.00
2023-04-20T09:27:39.053Z,7.18
2023-04-20T09:30:09.624Z,7.32
2023-04-20T09:32:37.601Z,6.78
2023-04-20T09:35:08.496Z,7.30
2023-04-20T09:37:50.248Z,7.45
2023-04-20T09:40:19.501Z,7.70
2023-04-20T09:42:49.853Z,7.05
2023-04-20T09:45:18.863Z,7.18
2023-04-20T09:47:47.421Z,7.55
2023-04-20T09:50:26.584Z,6.80
2023-04-20T09:53:01.663Z,6.95
2023-04-20T09:55:33.835Z,7.75
2023-04-20T09:58:05.256Z,7.38
2023-04-20T10:00:33.863Z,6.70
2023-04-20T10:03:02.364Z,7.55
2023-04-20T10:05:34.877Z,6.70
2023-04-20T10:08:04.255Z,7.93
2023-04-20T10:10:31.282Z,6.93
2023-04-20T10:13:01.616Z,7.43
2023-04-20T10:15:39.738Z,6.93
2023-04-20T10:18:19.164Z,7.13
2023-04-20T10:20:48.182Z,6.43
2023-04-20T10:23:16.440Z,6.20
2023-04-20T10:25:54.712Z,6.05
2023-04-20T10:28:22.916Z,5.93
2023-04-20T10:30:54.408Z,5.57
2023-04-20T10:33:23.691Z,5.32
2023-04-20T10:35:58.302Z,5.80
2023-04-20T10:38:33.015Z,5.57
2023-04-20T10:41:26.366Z,12.98
2023-04-20T10:43:53.361Z,6.10
2023-04-20T10:46:25.122Z,6.10
2023-04-20T10:49:01.312Z,6.70
2023-04-20T10:51:28.690Z,6.18
2023-04-20T10:54:14.946Z,5.93
2023-04-20T10:56:54.066Z,6.03
2023-04-20T10:59:24.867Z,6.03
2023-04-20T11:01:52.321Z,6.82
2023-04-20T11:04:29.199Z,6.35
2023-04-20T11:07:03.654Z,6.45
2023-04-20T11:09:30.971Z,6.50
2023-04-20T11:12:03.892Z,6.20
2023-04-20T11:14:38.222Z,6.43
2023-04-20T11:17:06.475Z,6.13
2023-04-20T11:19:35.856Z,6.63
2023-04-20T11:22:06.287Z,6.55
2023-04-20T11:24:34.250Z,6.20
2023-04-20T11:27:02.383Z,6.47
2023-04-20T11:29:39.761Z,6.65
2023-04-20T11:32:11.863Z,6.65
2023-04-20T11:34:39.967Z,6.95
2023-04-20T11:37:09.736Z,7.18
2023-04-20T11:39:38.552Z,7.50
2023-04-20T11:42:06.360Z,7.35
2023-04-20T11:44:34.449Z,6.80
2023-04-20T11:47:02.028Z,6.43
2023-04-20T11:49:30.975Z,6.70
2023-04-20T11:51:58.717Z,6.43
2023-04-20T11:54:27.335Z,6.30
2023-04-20T11:56:54.281Z,6.78
2023-04-20T11:59:21.666Z,6.10
2023-04-20T12:01:49.728Z,6.18
2023-04-20T12:04:17.001Z,6.22
2023-04-20T12:06:44.893Z,6.30
2023-04-20T12:09:13.450Z,6.55
2023-04-20T12:11:41.759Z,7.25
2023-04-20T12:14:08.836Z,6.82
2023-04-20T12:16:36.031Z,7.45
2023-04-20T12:19:04.508Z,6.50
2023-04-20T12:21:32.654Z,6.68
2023-04-20T12:24:02.938Z,6.53
2023-04-20T12:26:37.779Z,7.40
2023-04-20T12:29:05.647Z,8.05
2023-04-20T12:31:32.636Z,8.27
2023-04-20T12:33:59.636Z,8.63
2023-04-20T12:36:28.045Z,8.07
2023-04-20T12:38:56.024Z,8.05
2023-04-20T12:41:26.279Z,8.38
2023-04-20T12:43:53.353Z,8.13
2023-04-20T12:46:20.819Z,8.10
2023-04-20T12:48:48.732Z,8.35
2023-04-20T12:51:19.636Z,7.88
2023-04-20T12:53:51.021Z,7.97
2023-04-20T12:56:30.080Z,7.85
2023-04-20T12:58:59.174Z,7.68
2023-04-20T13:01:27.247Z,7.93
2023-04-20T13:03:56.708Z,7.80
2023-04-20T13:06:24.967Z,7.13
2023-04-20T13:08:55.595Z,7.18
2023-04-20T13:11:26.694Z,7.90
2023-04-20T13:13:57.047Z,7.93
2023-04-20T13:16:25.372Z,8.15
2023-04-20T13:18:54.381Z,8.18
2023-04-20T13:21:21.296Z,8.68
2023-04-20T13:23:48.305Z,9.02
2023-04-20T13:26:16.367Z,10.05
2023-04-20T13:28:47.735Z,11.27
2023-04-20T13:31:15.440Z,10.43
2023-04-20T13:33:44.562Z,12.10
2023-04-20T13:36:13.920Z,11.40
2023-04-20T13:38:42.213Z,12.52
2023-04-20T13:41:09.640Z,11.00
2023-04-20T13:43:36.592Z,10.95
2023-04-20T13:46:03.748Z,11.00
2023-04-20T13:48:32.896Z,11.52
2023-04-20T13:51:03.057Z,12.48
2023-04-20T13:53:30.270Z,12.55
2023-04-20T13:55:58.379Z,13.18
2023-04-20T13:58:30.975Z,14.13
2023-04-20T14:00:59.269Z,13.13
2023-04-20T14:03:32.589Z,13.07
2023-04-20T14:06:31.962Z,13.38
2023-04-20T14:09:01.918Z,11.02
2023-04-20T14:11:30.089Z,11.05
2023-04-20T14:13:58.444Z,10.23
2023-04-20T14:16:27.290Z,10.43
2023-04-20T14:18:56.416Z,10.50
2023-04-20T14:21:23.564Z,9.68
2023-04-20T14:23:56.154Z,9.45
2023-04-20T14:26:28.076Z,9.05
2023-04-20T14:28:55.420Z,9.40
2023-04-20T14:31:26.791Z,10.75
2023-04-20T14:33:56.253Z,9.35
2023-04-20T14:36:27.370Z,10.60
2023-04-20T14:39:03.512Z,10.75
2023-04-20T14:41:34.261Z,9.68
2023-04-20T14:44:05.231Z,9.63
2023-04-20T14:46:34.005Z,9.48
2023-04-20T14:49:03.316Z,9.27
2023-04-20T14:51:32.878Z,10.00
2023-04-20T14:54:00.278Z,10.07
2023-04-20T14:56:28.890Z,9.48
2023-04-20T14:59:06.848Z,9.68
2023-04-20T15:01:51.325Z,10.98
2023-04-20T15:04:29.257Z,10.02
2023-04-20T15:07:00.045Z,9.70
2023-04-20T15:09:27.736Z,8.05
2023-04-20T15:12:00.250Z,6.97
2023-04-20T15:14:30.247Z,7.88
2023-04-20T15:16:57.525Z,8.23
2023-04-20T15:19:24.571Z,8.73
2023-04-20T15:21:52.421Z,7.78
2023-04-20T15:24:20.698Z,6.00
2023-04-20T15:26:47.999Z,7.00
2023-04-20T15:29:15.031Z,6.00
2023-04-20T15:31:46.746Z,6.25
2023-04-20T15:34:16.524Z,5.43
2023-04-20T15:36:44.212Z,5.93
2023-04-20T15:39:14.403Z,5.05
2023-04-20T15:41:43.467Z,4.55
2023-04-20T15:44:10.886Z,5.20
2023-04-20T15:46:38.471Z,5.15
2023-04-20T15:49:05.732Z,4.75
2023-04-20T15:51:32.735Z,4.97
2023-04-20T15:53:59.857Z,5.30
2023-04-20T15:56:28.552Z,5.10
2023-04-20T15:58:57.100Z,5.18
2023-04-20T16:01:24.615Z,5.22
2023-04-20T16:03:51.704Z,5.05
2023-04-20T16:06:19.315Z,5.03
2023-04-20T16:08:51.044Z,5.22
2023-04-20T16:11:22.383Z,5.60
2023-04-20T16:13:49.797Z,6.15
2023-04-20T16:16:19.017Z,5.00
2023-04-20T16:18:46.803Z,5.38
2023-04-20T16:21:15.921Z,5.40
2023-04-20T16:23:43.931Z,6.03
2023-04-20T16:26:13.197Z,5.75
2023-04-20T16:28:40.303Z,5.55
2023-04-20T16:31:15.509Z,5.85
2023-04-20T16:33:43.824Z,5.68
2023-04-20T16:36:27.274Z,6.38
2023-04-20T16:38:55.653Z,4.97
2023-04-20T16:45:04.674Z,5.35
2023-04-20T16:47:38.895Z,5.15
2023-04-20T16:50:07.936Z,8.25
2023-04-20T16:52:35.176Z,6.35
2023-04-20T16:55:04.020Z,5.32
2023-04-20T16:57:32.698Z,5.57
2023-04-20T17:00:00.702Z,5.45
2023-04-20T17:02:34.249Z,5.75
2023-04-20T17:05:02.335Z,5.50
2023-04-20T17:07:29.516Z,6.13
2023-04-20T17:09:56.688Z,7.28
2023-04-20T17:12:23.831Z,6.18
2023-04-20T17:14:51.221Z,6.50
2023-04-20T17:17:18.556Z,6.50
2023-04-20T17:19:45.534Z,6.40
2023-04-20T17:22:12.660Z,6.45
2023-04-20T17:24:41.830Z,6.80
2023-04-20T17:27:08.819Z,6.43
2023-04-20T17:29:38.447Z,6.38
2023-04-20T17:32:06.444Z,6.63
2023-04-20T17:34:34.672Z,8.70
2023-04-20T17:37:02.037Z,7.35
2023-04-20T17:39:30.118Z,6.72
2023-04-20T17:42:03.697Z,7.45
2023-04-20T17:44:34.070Z,7.22
2023-04-20T17:47:01.730Z,7.75
2023-04-20T17:49:31.134Z,7.60
2023-04-20T17:52:03.548Z,6.50
2023-04-20T17:57:15.711Z,7.38
2023-04-20T17:59:46.373Z,7.57
2023-04-20T18:02:14.662Z,27.50
2023-04-20T18:04:44.625Z,8.18
2023-04-20T18:07:13.727Z,8.27
2023-04-20T18:09:43.206Z,8.05
2023-04-20T18:12:11.484Z,7.75
2023-04-20T18:14:39.780Z,8.35
2023-04-20T18:17:06.902Z,8.35
2023-04-20T18:19:33.958Z,8.02
2023-04-20T18:22:04.236Z,8.85
2023-04-20T18:24:33.213Z,8.63
2023-04-20T18:27:08.089Z,8.50
2023-04-20T18:29:35.432Z,8.25
2023-04-20T18:32:03.432Z,7.43
2023-04-20T18:34:32.041Z,7.10
2023-04-20T18:37:00.004Z,7.32
2023-04-20T18:39:27.039Z,8.10
2023-04-20T18:41:54.119Z,8.18
2023-04-20T18:44:21.649Z,9.70
2023-04-20T18:46:48.983Z,23.35
2023-04-20T18:49:16.099Z,8.10
2023-04-20T18:51:43.098Z,8.63
2023-04-20T18:54:12.413Z,6.97
2023-04-20T18:56:41.116Z,7.00
2023-04-20T18:59:14.463Z,8.10
2023-04-20T19:01:41.735Z,7.60
2023-04-20T19:04:09.149Z,7.57
2023-04-20T19:06:36.335Z,6.93
2023-04-20T19:09:04.170Z,7.13
2023-04-20T19:11:33.484Z,6.70
2023-04-20T19:14:01.431Z,6.88
2023-04-20T19:16:32.786Z,6.38
2023-04-20T19:19:01.134Z,7.05
2023-04-20T19:21:29.667Z,7.03
2023-04-20T19:23:56.773Z,8.50
2023-04-20T19:26:24.196Z,7.43
2023-04-20T19:28:52.298Z,7.03
2023-04-20T19:31:21.614Z,7.07
2023-04-20T19:33:49.012Z,7.47
2023-04-20T19:36:18.130Z,7.10
2023-04-20T19:38:45.746Z,7.40
2023-04-20T19:41:13.258Z,7.55
2023-04-20T19:43:41.241Z,7.80
2023-04-20T19:46:09.766Z,7.35
2023-04-20T19:48:37.053Z,7.05
2023-04-20T19:51:06.708Z,7.82
2023-04-20T19:53:34.647Z,7.93
2023-04-20T19:56:04.243Z,8.20
2023-04-20T19:58:33.336Z,9.57
2023-04-20T20:01:00.630Z,7.90
2023-04-20T20:03:28.831Z,8.13
2023-04-20T20:05:59.406Z,8.20
2023-04-20T20:08:28.170Z,8.55
2023-04-20T20:10:55.448Z,9.60
2023-04-20T20:13:24.846Z,8.20
2023-04-20T20:15:55.228Z,7.90
2023-04-20T20:18:22.363Z,8.25
2023-04-20T20:20:51.293Z,7.95
2023-04-20T20:23:21.743Z,8.35
2023-04-20T20:25:50.230Z,8.57
2023-04-20T20:28:17.201Z,8.27
2023-04-20T20:30:45.329Z,8.55
2023-04-20T20:33:16.085Z,8.82
2023-04-20T20:35:45.299Z,8.77
2023-04-20T20:41:03.288Z,9.43
2023-04-20T20:43:33.394Z,10.07
2023-04-20T20:46:27.160Z,9.77
2023-04-20T20:48:58.417Z,9.80
2023-04-20T20:51:31.607Z,10.18
2023-04-20T20:54:07.050Z,10.88
2023-04-20T20:56:34.949Z,10.00
2023-04-20T20:59:04.106Z,11.30
2023-04-20T21:01:32.879Z,10.65
2023-04-20T21:04:01.580Z,10.65
2023-04-20T21:06:29.354Z,10.75
2023-04-20T21:08:58.455Z,11.20
2023-04-20T21:11:25.763Z,10.95
2023-04-20T21:14:02.294Z,10.95
2023-04-20T21:16:30.171Z,11.18
2023-04-20T21:18:59.410Z,10.35
2023-04-20T21:21:33.017Z,10.80
2023-04-20T21:24:01.573Z,11.38
2023-04-20T21:26:34.842Z,11.95
2023-04-20T21:29:06.434Z,12.25
2023-04-20T21:31:36.943Z,11.13
2023-04-20T21:34:11.637Z,11.07
2023-04-20T21:36:40.234Z,11.05
2023-04-20T21:39:09.000Z,11.77
2023-04-20T21:41:37.586Z,12.88
2023-04-20T21:44:08.189Z,11.40
2023-04-20T21:46:35.559Z,11.65
2023-04-20T21:49:12.141Z,12.10
2023-04-20T21:51:42.412Z,11.27
2023-04-20T21:54:09.499Z,12.05
2023-04-20T21:56:39.672Z,11.30
2023-04-20T21:59:07.734Z,10.55
2023-04-20T22:02:01.229Z,11.10
2023-04-20T22:04:30.487Z,11.93
2023-04-20T22:06:58.100Z,11.90
2023-04-20T22:09:26.305Z,12.88
2023-04-20T22:11:58.017Z,12.00
2023-04-20T22:14:25.205Z,11.75
2023-04-20T22:16:52.897Z,12.00
2023-04-20T22:19:22.280Z,12.27
2023-04-20T22:21:50.392Z,11.65
2023-04-20T22:24:17.976Z,12.07
2023-04-20T22:26:45.074Z,11.57
2023-04-20T22:29:12.081Z,11.75
2023-04-20T22:31:39.442Z,12.38
2023-04-20T22:34:08.233Z,11.95
2023-04-20T22:36:40.346Z,11.75
2023-04-20T22:39:07.505Z,12.20
2023-04-20T22:41:34.908Z,12.73
2023-04-20T22:44:02.011Z,11.90
2023-04-20T22:46:29.094Z,11.77
2023-04-20T22:48:57.245Z,11.93
2023-04-20T22:51:26.208Z,12.07
2023-04-20T22:53:53.637Z,13.15
2023-04-20T22:56:20.639Z,12.23
2023-04-20T22:58:47.601Z,11.55
2023-04-20T23:01:14.673Z,11.30
2023-04-20T23:03:41.662Z,11.55
2023-04-20T23:06:08.842Z,11.07
2023-04-20T23:08:40.273Z,11.48
2023-04-20T23:11:11.557Z,12.20
2023-04-20T23:13:38.598Z,11.90
2023-04-20T23:16:07.434Z,12.55
2023-04-20T23:18:35.814Z,12.23
2023-04-20T23:21:08.532Z,12.25
2023-04-20T23:26:04.708Z,12.90
2023-04-20T23:28:32.757Z,14.65
2023-04-20T23:31:01.291Z,14.13
2023-04-20T23:33:28.480Z,14.60
2023-04-20T23:35:55.475Z,14.88
2023-04-20T23:38:24.113Z,15.40
2023-04-20T23:40:52.474Z,14.73
2023-04-20T23:43:19.544Z,14.27
2023-04-20T23:45:47.944Z,15.05
2023-04-20T23:48:16.750Z,14.38
2023-04-20T23:50:44.123Z,14.68
2023-04-20T23:53:12.793Z,14.32
2023-04-20T23:55:44.039Z,15.90
2023-04-20T23:58:12.996Z,14.00
